createdAt,value
2023-01-26T00:01:22.500Z,92.50
2023-01-26T00:03:52.521Z,92.60
2023-01-26T00:06:24.017Z,92.60
2023-01-26T00:08:54.684Z,92.80
2023-01-26T00:11:27.034Z,93.00
2023-01-26T00:13:57.296Z,93.10
2023-01-26T00:16:26.611Z,93.30
2023-01-26T00:18:55.709Z,93.40
2023-01-26T00:21:27.431Z,93.60
2023-01-26T00:23:57.517Z,93.70
2023-01-26T00:26:28.709Z,93.80
2023-01-26T00:28:57.632Z,93.90
2023-01-26T00:31:28.991Z,93.90
2023-01-26T00:33:58.724Z,94.00
2023-01-26T00:36:29.320Z,94.10
2023-01-26T00:38:58.783Z,94.10
2023-01-26T00:41:44.964Z,94.20
2023-01-26T00:44:14.052Z,94.30
2023-01-26T00:46:43.032Z,94.90
2023-01-26T00:49:12.304Z,95.40
2023-01-26T00:51:42.696Z,95.80
2023-01-26T00:54:11.733Z,95.90
2023-01-26T00:56:41.245Z,95.80
2023-01-26T00:59:10.348Z,95.70
2023-01-26T01:01:39.473Z,95.50
2023-01-26T01:04:08.733Z,95.40
2023-01-26T01:06:38.073Z,95.30
2023-01-26T01:09:08.768Z,95.20
2023-01-26T01:11:37.905Z,95.10
2023-01-26T01:14:06.934Z,94.80
2023-01-26T01:16:35.883Z,94.50
2023-01-26T01:19:08.310Z,94.10
2023-01-26T01:21:38.084Z,93.90
2023-01-26T01:24:09.697Z,93.60
2023-01-26T01:26:39.762Z,93.60
2023-01-26T01:29:09.530Z,93.60
2023-01-26T01:31:39.503Z,93.70
2023-01-26T01:34:08.611Z,93.60
2023-01-26T01:36:37.633Z,93.70
2023-01-26T01:39:08.004Z,93.80
2023-01-26T01:41:37.147Z,93.80
2023-01-26T01:44:17.858Z,93.80
2023-01-26T01:46:52.964Z,94.00
2023-01-26T01:49:25.219Z,94.00
2023-01-26T01:51:58.994Z,94.10
2023-01-26T01:54:34.578Z,94.00
2023-01-26T01:57:15.981Z,94.10
2023-01-26T01:59:49.577Z,94.20
2023-01-26T02:02:19.351Z,94.20
2023-01-26T02:04:49.400Z,94.10
2023-01-26T02:07:18.377Z,94.40
2023-01-26T02:10:06.588Z,94.60
2023-01-26T02:12:37.360Z,94.60
2023-01-26T02:15:07.060Z,94.80
2023-01-26T02:17:36.891Z,94.90
2023-01-26T02:20:13.133Z,95.00
2023-01-26T02:22:49.408Z,95.00
2023-01-26T02:25:33.617Z,95.10
2023-01-26T02:28:04.257Z,95.10
2023-01-26T02:30:33.783Z,95.10
2023-01-26T02:33:03.298Z,95.10
2023-01-26T02:35:32.494Z,95.10
2023-01-26T02:38:02.817Z,95.10
2023-01-26T02:40:39.459Z,95.10
2023-01-26T02:43:08.853Z,95.10
2023-01-26T02:45:41.814Z,95.10
2023-01-26T02:48:10.941Z,95.10
2023-01-26T02:50:38.789Z,95.20
2023-01-26T02:53:07.935Z,95.30
2023-01-26T02:55:36.233Z,95.40
2023-01-26T02:58:07.906Z,95.50
2023-01-26T03:00:40.978Z,95.70
2023-01-26T03:03:16.384Z,96.00
2023-01-26T03:05:45.659Z,96.20
2023-01-26T03:08:15.048Z,96.30
2023-01-26T03:10:44.546Z,96.30
2023-01-26T03:13:13.746Z,96.20
2023-01-26T03:15:48.215Z,95.90
2023-01-26T03:18:35.821Z,95.50
2023-01-26T03:21:29.708Z,95.10
2023-01-26T03:24:16.029Z,94.70
2023-01-26T03:27:03.226Z,94.10
2023-01-26T03:29:33.670Z,93.70
2023-01-26T03:32:05.375Z,93.20
2023-01-26T03:34:35.371Z,92.70
2023-01-26T03:37:06.619Z,92.40
2023-01-26T03:40:09.298Z,92.10
2023-01-26T03:43:14.349Z,91.80
2023-01-26T03:46:00.978Z,91.40
2023-01-26T03:48:51.374Z,91.10
2023-01-26T03:51:37.604Z,90.90
2023-01-26T03:54:23.921Z,90.70
2023-01-26T03:57:11.525Z,90.50
2023-01-26T03:59:40.853Z,90.50
2023-01-26T04:02:31.712Z,90.40
2023-01-26T04:05:21.676Z,90.30
2023-01-26T04:08:12.907Z,90.20
2023-01-26T04:10:42.080Z,90.10
2023-01-26T04:13:28.190Z,90.00
2023-01-26T04:16:20.593Z,89.80
2023-01-26T04:19:06.695Z,89.60
2023-01-26T04:21:37.859Z,89.50
2023-01-26T04:24:17.124Z,89.40
2023-01-26T04:26:47.933Z,89.30
2023-01-26T04:29:23.993Z,89.20
2023-01-26T04:31:53.467Z,89.10
2023-01-26T04:34:24.067Z,89.00
2023-01-26T04:36:55.044Z,88.80
2023-01-26T04:39:27.095Z,88.80
2023-01-26T04:41:58.537Z,88.80
2023-01-26T04:44:27.641Z,88.80
2023-01-26T04:46:56.637Z,88.70
2023-01-26T04:49:25.576Z,88.90
2023-01-26T04:51:55.988Z,89.00
2023-01-26T04:54:25.472Z,89.30
2023-01-26T04:56:55.428Z,89.20
2023-01-26T04:59:24.374Z,89.00
2023-01-26T05:01:57.172Z,88.60
2023-01-26T05:04:26.303Z,88.40
2023-01-26T05:06:57.453Z,88.20
2023-01-26T05:09:28.209Z,88.30
2023-01-26T05:12:31.370Z,88.20
2023-01-26T05:15:23.601Z,88.10
2023-01-26T05:18:16.044Z,88.10
2023-01-26T05:21:12.961Z,88.00
2023-01-26T05:23:48.060Z,88.10
2023-01-26T05:26:41.700Z,88.50
2023-01-26T05:29:15.292Z,88.70
2023-01-26T05:31:44.555Z,89.10
2023-01-26T05:34:13.712Z,89.20
2023-01-26T05:36:42.742Z,89.50
2023-01-26T05:39:13.947Z,89.60
2023-01-26T05:41:42.998Z,89.70
2023-01-26T05:44:29.429Z,89.70
2023-01-26T05:47:04.413Z,89.80
2023-01-26T05:49:33.651Z,89.90
2023-01-26T05:52:02.956Z,90.00
2023-01-26T05:54:33.786Z,90.00
2023-01-26T05:57:02.879Z,89.80
2023-01-26T05:59:33.255Z,89.90
2023-01-26T06:02:02.790Z,90.00
2023-01-26T06:04:32.175Z,89.90
2023-01-26T06:07:02.404Z,89.00
2023-01-26T06:09:38.367Z,88.50
2023-01-26T06:12:25.797Z,88.30
2023-01-26T06:14:57.667Z,88.20
2023-01-26T06:17:34.947Z,87.80
2023-01-26T06:20:07.552Z,86.80
2023-01-26T06:22:37.490Z,86.00
2023-01-26T06:25:08.478Z,85.30
2023-01-26T06:27:42.516Z,84.60
2023-01-26T06:30:26.331Z,84.70
2023-01-26T06:33:00.380Z,84.10
2023-01-26T06:35:30.759Z,83.70
2023-01-26T06:38:03.308Z,83.30
2023-01-26T06:40:33.732Z,83.60
2023-01-26T06:43:21.363Z,83.80
2023-01-26T06:45:50.494Z,83.60
2023-01-26T06:48:20.736Z,83.50
2023-01-26T06:50:52.380Z,83.00
2023-01-26T06:53:31.213Z,83.00
2023-01-26T06:56:33.753Z,82.00
2023-01-26T06:59:38.564Z,81.30
2023-01-26T07:02:25.941Z,80.80
2023-01-26T07:05:13.400Z,80.10
2023-01-26T07:07:42.317Z,79.70
2023-01-26T07:10:12.928Z,79.10
2023-01-26T07:12:45.395Z,79.00
2023-01-26T07:15:15.135Z,78.60
2023-01-26T07:17:44.145Z,78.50
2023-01-26T07:20:13.737Z,78.50
2023-01-26T07:22:42.799Z,78.40
2023-01-26T07:25:11.920Z,78.60
2023-01-26T07:27:40.850Z,78.00
2023-01-26T07:30:14.489Z,77.20
2023-01-26T07:32:43.716Z,76.60
2023-01-26T07:35:12.693Z,77.50
2023-01-26T07:37:41.654Z,77.70
2023-01-26T07:40:12.302Z,78.10
2023-01-26T07:43:00.617Z,77.80
2023-01-26T07:45:54.233Z,75.80
2023-01-26T07:48:25.200Z,73.30
2023-01-26T07:50:54.372Z,71.30
2023-01-26T07:53:23.289Z,69.20
2023-01-26T07:55:52.314Z,68.70
2023-01-26T07:58:21.584Z,69.00
2023-01-26T08:00:51.965Z,70.00
2023-01-26T08:03:21.019Z,68.70
2023-01-26T08:05:50.039Z,65.50
2023-01-26T08:08:19.573Z,64.30
2023-01-26T08:10:48.532Z,62.80
2023-01-26T08:13:29.942Z,61.80
2023-01-26T08:16:07.427Z,61.40
2023-01-26T08:18:36.658Z,61.40
2023-01-26T08:21:06.072Z,61.20
2023-01-26T08:23:35.139Z,61.50
2023-01-26T08:26:04.941Z,64.00
2023-01-26T08:28:34.509Z,63.80
2023-01-26T08:31:08.496Z,64.20
2023-01-26T08:33:37.637Z,65.00
2023-01-26T08:36:08.817Z,65.90
2023-01-26T08:38:37.873Z,66.10
2023-01-26T08:41:07.645Z,66.20
2023-01-26T08:43:36.693Z,66.10
2023-01-26T08:46:07.693Z,66.20
2023-01-26T08:48:37.561Z,66.20
2023-01-26T08:51:08.714Z,66.30
2023-01-26T08:53:39.048Z,66.00
2023-01-26T08:56:10.204Z,65.70
2023-01-26T08:58:39.556Z,65.30
2023-01-26T09:01:12.971Z,65.30
2023-01-26T09:03:42.113Z,65.90
2023-01-26T09:06:13.830Z,66.10
2023-01-26T09:08:43.719Z,66.30
2023-01-26T09:11:13.659Z,66.50
2023-01-26T09:13:42.808Z,65.20
2023-01-26T09:16:19.844Z,63.20
2023-01-26T09:18:51.591Z,61.50
2023-01-26T09:21:21.001Z,59.90
2023-01-26T09:23:50.052Z,60.60
2023-01-26T09:26:19.051Z,58.00
2023-01-26T09:28:52.278Z,56.70
2023-01-26T09:31:22.882Z,57.10
2023-01-26T09:33:52.825Z,56.10
2023-01-26T09:36:21.852Z,56.00
2023-01-26T09:38:51.483Z,56.00
2023-01-26T09:41:36.313Z,56.20
2023-01-26T09:44:09.555Z,56.20
2023-01-26T09:46:56.959Z,55.90
2023-01-26T09:49:31.608Z,55.40
2023-01-26T09:52:06.795Z,54.50
2023-01-26T09:54:40.609Z,53.70
2023-01-26T09:57:15.109Z,53.40
2023-01-26T09:59:49.322Z,53.40
2023-01-26T10:02:32.746Z,53.60
2023-01-26T10:05:06.252Z,54.30
2023-01-26T10:07:35.552Z,54.80
2023-01-26T10:10:06.045Z,55.40
2023-01-26T10:12:37.909Z,55.90
2023-01-26T10:15:11.908Z,56.50
2023-01-26T10:17:44.463Z,56.80
2023-01-26T10:20:26.126Z,57.50
2023-01-26T10:22:58.110Z,58.50
2023-01-26T10:25:47.710Z,58.60
2023-01-26T10:28:19.003Z,58.40
2023-01-26T10:30:51.504Z,58.40
2023-01-26T10:33:28.912Z,58.50
2023-01-26T10:35:58.037Z,58.00
2023-01-26T10:38:45.096Z,57.70
2023-01-26T10:41:30.330Z,57.70
2023-01-26T10:44:02.777Z,58.30
2023-01-26T10:46:34.657Z,58.00
2023-01-26T10:49:16.317Z,57.50
2023-01-26T10:51:46.515Z,58.20
2023-01-26T10:54:21.124Z,57.40
2023-01-26T10:56:53.431Z,57.60
2023-01-26T10:59:30.051Z,57.40
2023-01-26T11:02:01.459Z,57.20
2023-01-26T11:04:32.269Z,57.20
2023-01-26T11:07:25.621Z,56.60
2023-01-26T11:09:55.179Z,55.30
2023-01-26T11:12:27.291Z,54.50
2023-01-26T11:15:04.373Z,54.40
2023-01-26T11:17:58.738Z,54.50
2023-01-26T11:20:48.515Z,55.10
2023-01-26T11:23:26.095Z,55.50
2023-01-26T11:26:14.098Z,55.50
2023-01-26T11:28:55.131Z,55.50
2023-01-26T11:31:34.060Z,55.40
2023-01-26T11:34:14.140Z,55.10
2023-01-26T11:36:54.124Z,55.00
2023-01-26T11:39:30.200Z,55.30
2023-01-26T11:42:11.625Z,55.30
2023-01-26T11:45:08.172Z,55.30
2023-01-26T11:47:50.992Z,55.50
2023-01-26T11:50:35.796Z,56.00
2023-01-26T11:53:31.031Z,55.30
2023-01-26T11:56:21.027Z,55.60
2023-01-26T11:58:56.526Z,55.00
2023-01-26T12:01:31.171Z,55.30
2023-01-26T12:04:00.270Z,55.40
2023-01-26T12:06:38.141Z,55.30
2023-01-26T12:09:19.181Z,54.80
2023-01-26T12:11:54.572Z,54.70
2023-01-26T12:14:29.089Z,54.60
2023-01-26T12:17:18.371Z,55.00
2023-01-26T12:19:54.263Z,55.00
2023-01-26T12:22:31.221Z,54.30
2023-01-26T12:25:19.028Z,54.20
2023-01-26T12:27:56.438Z,54.30
2023-01-26T12:30:42.241Z,54.60
2023-01-26T12:33:12.780Z,54.40
2023-01-26T12:36:01.811Z,54.30
2023-01-26T12:38:44.914Z,54.80
2023-01-26T12:41:20.577Z,54.20
2023-01-26T12:44:02.008Z,54.10
2023-01-26T12:46:33.937Z,54.50
2023-01-26T12:49:08.806Z,54.60
2023-01-26T12:51:42.669Z,54.60
2023-01-26T12:54:19.551Z,54.60
2023-01-26T12:56:54.876Z,54.70
2023-01-26T12:59:46.379Z,54.30
2023-01-26T13:02:30.550Z,54.50
2023-01-26T13:05:28.135Z,54.60
2023-01-26T13:07:57.195Z,54.50
2023-01-26T13:10:45.905Z,54.60
2023-01-26T13:13:34.282Z,54.70
2023-01-26T13:16:34.354Z,54.50
2023-01-26T13:19:04.466Z,54.30
2023-01-26T13:21:45.639Z,54.30
2023-01-26T13:24:44.878Z,54.60
2023-01-26T13:27:30.687Z,54.80
2023-01-26T13:30:01.774Z,54.60
2023-01-26T13:33:05.849Z,54.80
2023-01-26T13:35:36.977Z,54.80
2023-01-26T13:38:15.724Z,54.70
2023-01-26T13:40:48.276Z,54.60
2023-01-26T13:43:27.097Z,54.60
2023-01-26T13:46:11.373Z,55.10
2023-01-26T13:48:47.463Z,55.00
2023-01-26T13:51:19.916Z,55.10
2023-01-26T13:53:58.624Z,55.00
2023-01-26T13:56:31.206Z,55.00
2023-01-26T13:59:20.922Z,55.10
2023-01-26T14:01:53.105Z,55.10
2023-01-26T14:04:23.822Z,55.00
2023-01-26T14:06:57.897Z,55.00
2023-01-26T14:09:49.137Z,55.00
2023-01-26T14:12:23.921Z,55.10
2023-01-26T14:14:56.000Z,55.10
2023-01-26T14:17:31.314Z,55.00
2023-01-26T14:20:03.806Z,55.20
2023-01-26T14:22:33.064Z,55.70
2023-01-26T14:25:01.953Z,55.00
2023-01-26T14:27:38.321Z,55.00
2023-01-26T14:30:23.184Z,55.00
2023-01-26T14:32:57.588Z,54.80
2023-01-26T14:35:28.414Z,54.50
2023-01-26T14:38:07.948Z,54.60
2023-01-26T14:40:37.107Z,54.10
2023-01-26T14:43:06.218Z,53.90
2023-01-26T14:45:35.930Z,53.90
2023-01-26T14:48:10.608Z,54.60
2023-01-26T14:50:41.504Z,54.20
2023-01-26T14:53:19.737Z,54.00
2023-01-26T14:55:52.132Z,54.10
2023-01-26T14:58:24.614Z,54.50
2023-01-26T15:01:21.204Z,54.40
2023-01-26T15:03:57.881Z,54.50
2023-01-26T15:06:29.757Z,54.90
2023-01-26T15:09:01.953Z,55.20
2023-01-26T15:11:53.655Z,55.00
2023-01-26T15:14:36.545Z,54.70
2023-01-26T15:17:06.338Z,54.50
2023-01-26T15:19:44.136Z,54.50
2023-01-26T15:22:23.327Z,54.60
2023-01-26T15:25:03.068Z,55.00
2023-01-26T15:27:38.865Z,54.90
2023-01-26T15:30:09.228Z,55.00
2023-01-26T15:32:42.062Z,55.30
2023-01-26T15:35:24.936Z,55.20
2023-01-26T15:38:03.061Z,55.20
2023-01-26T15:40:32.315Z,55.30
2023-01-26T15:43:13.261Z,55.40
2023-01-26T15:45:43.946Z,55.60
2023-01-26T15:48:13.144Z,55.60
2023-01-26T15:50:43.547Z,56.20
2023-01-26T15:53:15.389Z,55.80
2023-01-26T15:55:45.558Z,55.90
2023-01-26T15:58:14.691Z,55.70
2023-01-26T16:00:43.785Z,55.80
2023-01-26T16:03:16.876Z,55.70
2023-01-26T16:05:48.879Z,55.80
2023-01-26T16:08:18.414Z,55.80
2023-01-26T16:10:48.246Z,55.80
2023-01-26T16:13:20.914Z,55.60
2023-01-26T16:15:51.925Z,55.60
2023-01-26T16:18:21.402Z,55.60
2023-01-26T16:20:52.378Z,55.60
2023-01-26T16:23:23.635Z,55.70
2023-01-26T16:25:53.272Z,55.70
2023-01-26T16:28:22.868Z,55.60
2023-01-26T16:30:52.308Z,55.70
2023-01-26T16:33:22.399Z,55.70
2023-01-26T16:35:52.913Z,55.40
2023-01-26T16:38:22.086Z,55.30
2023-01-26T16:40:51.618Z,55.20
2023-01-26T16:43:24.179Z,55.30
2023-01-26T16:45:54.054Z,55.20
2023-01-26T16:48:24.248Z,55.00
2023-01-26T16:50:55.824Z,55.00
2023-01-26T16:53:27.742Z,55.10
2023-01-26T16:55:56.904Z,55.00
2023-01-26T16:58:26.796Z,55.00
2023-01-26T17:00:56.485Z,55.00
2023-01-26T17:03:25.869Z,54.90
2023-01-26T17:05:57.426Z,54.80
2023-01-26T17:08:26.571Z,54.80
2023-01-26T17:11:02.388Z,54.70
2023-01-26T17:13:32.744Z,54.80
2023-01-26T17:16:01.822Z,54.70
2023-01-26T17:18:33.625Z,54.50
2023-01-26T17:21:07.735Z,54.60
2023-01-26T17:23:39.044Z,54.60
2023-01-26T17:26:08.244Z,54.40
2023-01-26T17:28:37.105Z,54.40
2023-01-26T17:31:11.149Z,54.30
2023-01-26T17:33:40.649Z,53.80
2023-01-26T17:36:11.967Z,54.30
2023-01-26T17:38:40.958Z,53.60
2023-01-26T17:41:10.766Z,53.50
2023-01-26T17:43:39.802Z,53.40
2023-01-26T17:46:10.359Z,53.30
2023-01-26T17:48:39.644Z,53.10
2023-01-26T17:51:11.211Z,53.10
2023-01-26T17:53:40.577Z,52.90
2023-01-26T17:56:11.153Z,52.70
2023-01-26T17:58:40.641Z,52.60
2023-01-26T18:01:11.367Z,52.50
2023-01-26T18:03:43.394Z,52.50
2023-01-26T18:06:32.478Z,52.70
2023-01-26T18:09:01.519Z,52.80
2023-01-26T18:11:30.512Z,52.70
2023-01-26T18:13:59.749Z,53.20
2023-01-26T18:16:28.770Z,52.50
2023-01-26T18:18:59.492Z,52.70
2023-01-26T18:21:30.432Z,52.70
2023-01-26T18:24:03.537Z,52.80
2023-01-26T18:26:35.084Z,52.80
2023-01-26T18:29:06.239Z,52.70
2023-01-26T18:31:37.298Z,52.70
2023-01-26T18:34:25.070Z,52.70
2023-01-26T18:36:54.055Z,52.50
2023-01-26T18:39:24.576Z,52.50
2023-01-26T18:41:53.591Z,52.50
2023-01-26T18:44:22.840Z,52.30
2023-01-26T18:46:51.853Z,52.30
2023-01-26T18:49:21.015Z,52.20
2023-01-26T18:51:50.892Z,52.20
2023-01-26T18:54:20.308Z,52.20
2023-01-26T18:56:50.715Z,52.10
2023-01-26T18:59:20.100Z,52.00
2023-01-26T19:01:49.429Z,51.90
2023-01-26T19:04:18.581Z,51.60
2023-01-26T19:06:48.183Z,51.70
2023-01-26T19:09:17.204Z,51.70
2023-01-26T19:11:46.164Z,51.60
2023-01-26T19:14:16.769Z,51.60
2023-01-26T19:16:47.865Z,51.20
2023-01-26T19:19:17.143Z,51.40
2023-01-26T19:21:46.102Z,51.50
2023-01-26T19:24:15.623Z,51.30
2023-01-26T19:26:44.617Z,51.30
2023-01-26T19:29:13.843Z,51.40
2023-01-26T19:31:44.332Z,51.40
2023-01-26T19:34:17.099Z,51.20
2023-01-26T19:36:47.185Z,51.00
2023-01-26T19:39:16.240Z,51.60
2023-01-26T19:41:46.470Z,50.80
2023-01-26T19:44:15.427Z,50.70
2023-01-26T19:46:45.826Z,50.80
2023-01-26T19:49:16.327Z,50.60
2023-01-26T19:51:45.314Z,50.40
2023-01-26T19:54:14.900Z,50.10
2023-01-26T19:56:43.831Z,49.90
2023-01-26T19:59:13.536Z,50.10
2023-01-26T20:01:42.466Z,50.10
2023-01-26T20:04:16.149Z,49.90
2023-01-26T20:06:45.176Z,49.90
2023-01-26T20:09:14.125Z,50.00
2023-01-26T20:11:43.123Z,50.10
2023-01-26T20:14:12.769Z,50.20
2023-01-26T20:16:42.108Z,50.30
2023-01-26T20:19:14.535Z,50.30
2023-01-26T20:21:43.654Z,50.10
2023-01-26T20:24:17.140Z,50.10
2023-01-26T20:26:46.399Z,50.10
2023-01-26T20:29:17.277Z,50.10
2023-01-26T20:31:47.233Z,50.10
2023-01-26T20:34:18.191Z,50.10
2023-01-26T20:36:47.311Z,50.10
2023-01-26T20:39:24.884Z,50.10
2023-01-26T20:41:55.411Z,50.10
2023-01-26T20:44:24.524Z,50.20
2023-01-26T20:46:53.476Z,50.30
2023-01-26T20:49:23.931Z,50.40
2023-01-26T20:51:52.948Z,50.70
2023-01-26T20:54:22.971Z,50.60
2023-01-26T20:56:52.037Z,50.70
2023-01-26T20:59:22.335Z,50.60
2023-01-26T21:01:51.775Z,50.90
2023-01-26T21:04:20.801Z,51.00
2023-01-26T21:06:51.348Z,51.00
2023-01-26T21:09:21.391Z,51.00
2023-01-26T21:11:50.370Z,50.90
2023-01-26T21:14:20.523Z,51.20
2023-01-26T21:16:50.068Z,51.20
2023-01-26T21:19:22.030Z,51.20
2023-01-26T21:21:52.908Z,51.30
2023-01-26T21:24:23.473Z,51.00
2023-01-26T21:26:52.743Z,51.30
2023-01-26T21:29:22.112Z,51.20
2023-01-26T21:31:52.449Z,51.40
2023-01-26T21:34:23.242Z,51.60
2023-01-26T21:36:54.147Z,51.50
2023-01-26T21:39:23.232Z,51.30
2023-01-26T21:41:58.221Z,51.40
2023-01-26T21:44:28.711Z,51.30
2023-01-26T21:46:59.632Z,51.30
2023-01-26T21:49:29.943Z,51.60
2023-01-26T21:52:18.013Z,51.30
2023-01-26T21:54:47.624Z,51.20
2023-01-26T21:57:34.738Z,51.40
2023-01-26T22:00:04.025Z,51.20
2023-01-26T22:02:33.562Z,51.50
2023-01-26T22:05:02.536Z,51.70
2023-01-26T22:07:33.679Z,51.60
2023-01-26T22:10:02.806Z,51.40
2023-01-26T22:12:32.058Z,51.50
2023-01-26T22:15:01.379Z,51.00
2023-01-26T22:17:30.296Z,51.10
2023-01-26T22:19:59.740Z,51.30
2023-01-26T22:22:28.750Z,51.20
2023-01-26T22:24:59.914Z,51.30
2023-01-26T22:27:29.365Z,51.00
2023-01-26T22:29:58.274Z,51.10
2023-01-26T22:32:27.862Z,51.00
2023-01-26T22:34:56.857Z,51.30
2023-01-26T22:37:25.974Z,51.30
2023-01-26T22:39:54.909Z,51.20
2023-01-26T22:42:25.601Z,51.00
2023-01-26T22:44:54.633Z,51.00
2023-01-26T22:47:23.578Z,51.10
2023-01-26T22:49:52.593Z,51.20
2023-01-26T22:52:21.460Z,51.20
2023-01-26T22:54:50.364Z,51.40
2023-01-26T22:57:19.617Z,51.30
2023-01-26T22:59:50.028Z,51.30
2023-01-26T23:02:19.047Z,51.60
2023-01-26T23:04:48.092Z,51.50
2023-01-26T23:07:16.944Z,51.40
2023-01-26T23:09:45.883Z,51.50
2023-01-26T23:12:14.768Z,51.50
2023-01-26T23:14:43.660Z,51.30
2023-01-26T23:17:14.196Z,51.40
2023-01-26T23:19:43.106Z,51.50
2023-01-26T23:22:12.008Z,51.40
2023-01-26T23:24:40.933Z,51.50
2023-01-26T23:27:09.857Z,51.40
2023-01-26T23:29:38.718Z,51.40
2023-01-26T23:32:08.062Z,51.30
2023-01-26T23:34:38.443Z,51.50
2023-01-26T23:37:07.553Z,51.60
2023-01-26T23:39:36.456Z,51.80
2023-01-26T23:42:05.457Z,51.80
2023-01-26T23:44:34.499Z,51.90
2023-01-26T23:47:03.489Z,51.90
2023-01-26T23:49:32.477Z,51.90
2023-01-26T23:52:02.902Z,51.70
2023-01-26T23:54:31.745Z,51.60
2023-01-26T23:57:00.771Z,51.60
2023-01-26T23:59:30.042Z,51.60
